ADDS METAR Data INFO
IDs: Format: Raw Decoded Include TAF

Data at: 0322 UTC 18 Aug 2017

KPRS 180315Z AUTO 03005KT 10SM -TSRA OVC120 24/20 A3010 RMK AO2 LTG DSNT E T02400197
KPRS 180255Z AUTO 34007KT 10SM OVC110 25/19 A3011 RMK AO2 T02450188
KPRS 180235Z AUTO 33006KT 10SM SCT090 OVC110 25/18 A3011 RMK AO2 T02450183
KPRS 180215Z AUTO 31009G15KT 10SM SCT070 OVC090 25/19 A3011 RMK AO2 LTG DSNT S T02500186
KPRS 180155Z AUTO 30012G19KT 10SM SCT070 OVC080 27/18 A3011 RMK AO2 LTG DSNT W T02680176
KPRS 180135Z AUTO 30006KT 10SM BKN080 OVC110 29/16 A3010 RMK AO2 LTG DSNT S THRU W T02890164
KPRS 180115Z AUTO 02008KT 10SM VCTS OVC100 29/16 A3008 RMK AO2 LTG DSNT S THRU NW T02900164
KPRS 180055Z AUTO 02012G21KT 10SM TS BKN100 BKN120 29/16 A3006 RMK AO2 LTG DSNT S THRU NW T02930156
KPRS 180035Z AUTO 02011G22KT 10SM SCT110 30/16 A3004 RMK AO2 LTG DSNT S THRU W T03000155
KPRS 180015Z AUTO 01012G21KT 10SM CLR 30/16 A3004 RMK AO2 LTG DSNT SW THRU NW T03020157
KPRS 172355Z AUTO 03014G20KT 10SM VCTS CLR 31/16 A3004 RMK AO2 LTG DSNT NE SW AND W T03070160 10348 20288
KPRS 172335Z AUTO 35013KT 10SM CLR 31/17 A3005 RMK AO2 LTG DSNT NE AND SW T03070171
KPRS 172315Z AUTO 03007KT 10SM SCT070 SCT080 30/16 A3004 RMK AO2 LTG DSNT ALQS T03020162
KPRS 172255Z AUTO 07006KT 10SM -RA SCT039 SCT050 BKN080 29/18 A3002 RMK AO2 LTG DSNT ALQS T02890176
KPRS 172235Z AUTO 11007KT 10SM CLR 29/17 A3002 RMK AO2 LTG DSNT ALQS T02900173
KPRS 172215Z AUTO 11009KT 10SM CLR 30/17 A3002 RMK AO2 LTG DSNT NW THRU E T02960173
KPRS 172155Z AUTO 09009KT 10SM CLR 29/18 A3002 RMK AO2 LTG DSNT ALQS T02920176
KPRS 172135Z AUTO 11008G16KT 10SM CLR 30/16 A3003 RMK AO2 LTG DSNT NW THRU E T02970163
KPRS 172115Z AUTO 13011G17KT 10SM SCT070 SCT120 31/17 A3003 RMK AO2 LTG DSNT N THRU E T03090167
KPRS 172055Z AUTO 15019G28KT 10SM VCTS SCT070 BKN110 30/18 A3005 RMK AO2 LTG DSNT N E AND S T02990175
KPRS 172035Z AUTO 16008KT 10SM VCTS SCT110 35/16 A3004 RMK AO2 LTG DSNT E THRU S T03450160
KPRS 172015Z AUTO 00000KT 10SM VCTS CLR 34/16 A3004 RMK AO2 LTG DSNT E THRU SW T03390158
KPRS 171955Z AUTO 18008KT 10SM VCTS CLR 34/16 A3005 RMK AO2 LTG DSNT E THRU S T03370160
KPRS 171935Z AUTO 15003KT 10SM CLR 33/17 A3005 RMK AO2 LTG DSNT NE THRU SE T03300165
KPRS 171915Z AUTO 00000KT 10SM CLR 32/17 A3006 RMK AO2 LTG DSNT E THRU SW T03210168
KPRS 171855Z AUTO 05004KT 10SM SCT110 32/18 A3008 RMK AO2 T03200175
KPRS 171835Z AUTO 15004KT 10SM OVC120 31/18 A3009 RMK AO2 T03080176
KPRS 171815Z AUTO 14003KT 10SM BKN120 31/18 A3010 RMK AO2 T03110178
KPRS 171755Z AUTO 18005KT 10SM SCT120 31/18 A3010 RMK AO2 T03090177 10311 20256
KPRS 171735Z AUTO 04003KT 10SM SCT120 31/18 A3011 RMK AO2 LTG DSNT SE T03050180
KPRS 171715Z AUTO 11004KT 10SM SCT120 30/18 A3011 RMK AO2 T03030180
KPRS 171655Z AUTO 05003KT 10SM BKN120 30/18 A3011 RMK AO2 LTG DSNT W T02970179
KPRS 171635Z AUTO 13004KT 10SM SCT120 29/18 A3011 RMK AO2 T02930180
KPRS 171615Z AUTO 07004KT 10SM SCT120 29/18 A3011 RMK AO2 T02920179
KPRS 171555Z AUTO 09004KT 10SM SCT120 29/18 A3011 RMK AO2 T02880179
KPRS 171535Z AUTO 08005KT 10SM BKN120 29/18 A3010 RMK AO2 T02850177
KPRS 171515Z AUTO 06005KT 10SM SCT120 28/18 A3010 RMK AO2 T02820181
KPRS 171455Z AUTO 00000KT 10SM BKN120 28/18 A3010 RMK AO2 T02770181
KPRS 171435Z AUTO 00000KT 10SM OVC120 28/18 A3010 RMK AO2 T02770178
KPRS 171415Z AUTO 33004KT 10SM BKN120 27/18 A3009 RMK AO2 T02720179
KPRS 171355Z AUTO 34004KT 10SM SCT120 27/18 A3008 RMK AO2 T02700180
KPRS 171335Z AUTO 36004KT 10SM CLR 26/18 A3008 RMK AO2 T02630181
KPRS 171315Z AUTO 02004KT 10SM SCT120 26/18 A3007 RMK AO2 T02600180
KPRS 171255Z AUTO 04004KT 10SM OVC120 26/18 A3007 RMK AO2 T02600182
KPRS 171235Z AUTO 03003KT 10SM BKN120 26/19 A3006 RMK AO2 T02560185
KPRS 171215Z AUTO 03004KT 10SM CLR 26/18 A3005 RMK AO2 T02560183
KPRS 171155Z AUTO 05003KT 10SM CLR 26/18 A3005 RMK AO2 70001 T02610178 10277 20258
KPRS 171135Z AUTO 01005KT 10SM CLR 26/18 A3004 RMK AO2 T02610178
KPRS 171115Z AUTO 05003KT 10SM CLR 26/18 A3004 RMK AO2 T02600183
KPRS 171055Z AUTO 04004KT 10SM CLR 27/18 A3004 RMK AO2 T02650181
KPRS 171035Z AUTO 35004KT 10SM CLR 27/18 A3003 RMK AO2 T02650182
KPRS 171015Z AUTO 04004KT 10SM SCT110 27/18 A3003 RMK AO2 T02650181
KPRS 170955Z AUTO 04003KT 10SM CLR 27/18 A3003 RMK AO2 T02660181
KPRS 170935Z AUTO 07004KT 10SM CLR 27/18 A3003 RMK AO2 T02670180
KPRS 170915Z AUTO 06003KT 10SM CLR 27/18 A3003 RMK AO2 T02680178
KPRS 170855Z AUTO 06003KT 10SM CLR 27/18 A3003 RMK AO2 T02690176
KPRS 170835Z AUTO 02004KT 10SM CLR 27/17 A3003 RMK AO2 T02730173
KPRS 170815Z AUTO 02005KT 10SM CLR 28/17 A3003 RMK AO2 T02750171
KPRS 170755Z AUTO 02005KT 10SM CLR 28/17 A3003 RMK AO2 T02770170
KPRS 170735Z AUTO 02005KT 10SM CLR 28/17 A3003 RMK AO2 T02760171
KPRS 170715Z AUTO 01004KT 10SM CLR 28/17 A3003 RMK AO2 T02770171
KPRS 170655Z AUTO 02005KT 10SM CLR 27/17 A3003 RMK AO2 T02720170
KPRS 170635Z AUTO 02004KT 10SM SCT120 28/17 A3003 RMK AO2 T02750170
KPRS 170615Z AUTO 02005KT 10SM SCT120 28/17 A3003 RMK AO2 T02750170
KPRS 170555Z AUTO 02005KT 10SM BKN110 28/17 A3003 RMK AO2 T02750170 10331 20275 403760240
KPRS 170535Z AUTO 01005KT 10SM BKN110 28/17 A3003 RMK AO2 T02770170
KPRS 170515Z AUTO 01004KT 10SM OVC110 28/17 A3002 RMK AO2 LTG DSNT SW T02770170
KPRS 170455Z AUTO 02004KT 10SM OVC110 28/17 A3002 RMK AO2 T02790167
KPRS 170435Z AUTO 36005KT 10SM BKN110 28/17 A3002 RMK AO2 T02770165
KPRS 170415Z AUTO 02005KT 10SM CLR 28/16 A3002 RMK AO2 LTG DSNT NE T02800163
KPRS 170355Z AUTO 02005KT 10SM SCT110 29/16 A3001 RMK AO2 T02850161
KPRS 170335Z AUTO 02005KT 10SM OVC110 28/16 A3001 RMK AO2 T02840162
KPRS 170315Z AUTO 34004KT 10SM OVC120 28/17 A3001 RMK AO2 T02800166
KPRS 170255Z AUTO 03006KT 10SM BKN120 28/17 A3000 RMK AO2 LTG DSNT SE T02800165
KPRS 170235Z AUTO 05006KT 10SM CLR 28/17 A2999 RMK AO2 T02810170
KPRS 170215Z AUTO 04008KT 10SM SCT110 29/17 A2998 RMK AO2 T02850165
KPRS 170155Z AUTO 05007KT 10SM CLR 29/16 A2998 RMK AO2 LTG DSNT S T02910157
KPRS 170135Z AUTO 04008KT 10SM CLR 30/15 A2997 RMK AO2 T03000151
KPRS 170115Z AUTO 05010G16KT 10SM CLR 30/16 A2996 RMK AO2 T03000155
KPRS 170055Z AUTO 04011G16KT 10SM SCT110 30/16 A2995 RMK AO2 T03010163
KPRS 170035Z AUTO 05005KT 10SM CLR 32/17 A2994 RMK AO2 T03180168
KPRS 170015Z AUTO 00000KT 10SM SCT110 33/15 A2993 RMK AO2 T03270154
KPRS 162355Z AUTO 08004KT 10SM SCT120 33/14 A2993 RMK AO2 LTG DSNT W 60001 T03320144 10376 20295
KPRS 162335Z AUTO 06007KT 10SM VCTS BKN110 34/15 A2993 RMK AO2 LTG DSNT E T03370149
KPRS 162315Z AUTO 03006G10KT 10SM SCT090 OVC110 33/15 A2994 RMK AO2 LTG DSNT E T03330151
KPRS 162255Z AUTO 02011G15KT 10SM SCT085 OVC095 32/18 A2994 RMK AO2 LTG DSNT NE THRU SE P0001 T03150181
KPRS 162235Z AUTO 04009KT 10SM -RA SCT060 SCT070 OVC095 30/19 A2995 RMK AO2 LTG DSNT E P0001 T03030191
KPRS 162215Z AUTO 01008KT 7SM RA OVC095 31/19 A2995 RMK AO2 LTG DSNT E T03100187
KPRS 162155Z AUTO 03012G16KT 10SM OVC095 35/13 A2995 RMK AO2 LTG DSNT E T03480132
KPRS 162135Z AUTO 35007KT 10SM OVC095 36/15 A2994 RMK AO2 LTG DSNT NE AND E T03610146
KPRS 162115Z AUTO 25005KT 10SM SCT095 BKN120 37/13 A2994 RMK AO2 T03690133
KPRS 162055Z AUTO 28004KT 10SM VCTS SCT095 36/13 A2995 RMK AO2 LTG DSNT S T03640134
KPRS 162035Z AUTO 23003KT 10SM SCT090 35/13 A2996 RMK AO2 LTG DSNT NE E AND SW T03540134
KPRS 162015Z AUTO 21004KT 10SM BKN090 36/14 A2996 RMK AO2 T03620135
KPRS 161955Z AUTO 10003KT 10SM CLR 35/15 A2998 RMK AO2 T03470152
KPRS 161935Z AUTO 00000KT 10SM CLR 35/15 A2998 RMK AO2 LTG DSNT SE AND SW T03490153
KPRS 161915Z AUTO 12004KT 10SM SCT075 SCT085 35/15 A2999 RMK AO2 LTG DSNT SE T03460153
KPRS 161855Z AUTO 00000KT 10SM SCT075 35/16 A3000 RMK AO2 T03490159
KPRS 161835Z AUTO 00000KT 10SM CLR 34/16 A3001 RMK AO2 LTG DSNT SE T03380159
KPRS 161815Z AUTO 30008KT 10SM CLR 33/16 A3002 RMK AO2 T03310161
KPRS 161755Z AUTO 28005KT 10SM CLR 33/16 A3003 RMK AO2 T03260161 10329 20240
KPRS 161735Z AUTO 24004KT 10SM CLR 33/16 A3004 RMK AO2 T03290159
KPRS 161715Z AUTO 23005KT 10SM CLR 32/16 A3004 RMK AO2 T03160164
KPRS 161655Z AUTO 22005KT 10SM CLR 31/16 A3004 RMK AO2 LTG DSNT E T03120164
KPRS 161635Z AUTO 24006KT 10SM CLR 32/18 A3004 RMK AO2 T03160175
KPRS 161615Z AUTO 20006KT 10SM CLR 30/18 A3004 RMK AO2 T03020180
KPRS 161555Z AUTO 25003KT 10SM CLR 30/18 A3004 RMK AO2 T02960180
KPRS 161535Z AUTO 00000KT 10SM CLR 29/18 A3004 RMK AO2 T02890181